createdAt,value
2018-06-11T00:01:38.261Z,19.60
2018-06-11T00:04:06.598Z,19.50
2018-06-11T00:06:34.936Z,19.40
2018-06-11T00:09:03.479Z,19.40
2018-06-11T00:11:31.847Z,19.40
2018-06-11T00:14:00.187Z,19.30
2018-06-11T00:16:28.520Z,19.30
2018-06-11T00:18:56.861Z,19.20
2018-06-11T00:21:25.208Z,19.20
2018-06-11T00:26:21.546Z,19.00
2018-06-11T00:28:50.774Z,18.90
2018-06-11T00:31:19.195Z,18.80
2018-06-11T00:33:47.777Z,18.80
2018-06-11T00:36:16.102Z,18.60
2018-06-11T00:38:44.453Z,18.60
2018-06-11T00:41:20.775Z,18.60
2018-06-11T00:43:49.945Z,18.70
2018-06-11T00:46:18.274Z,18.60
2018-06-11T00:48:46.625Z,18.60
2018-06-11T00:51:14.987Z,18.60
2018-06-11T00:53:43.314Z,18.60
2018-06-11T00:56:11.771Z,18.60
2018-06-11T00:58:40.170Z,18.60
2018-06-11T01:01:08.536Z,18.50
2018-06-11T01:03:36.892Z,18.50
2018-06-11T01:06:05.263Z,18.50
2018-06-11T01:08:33.636Z,18.40
2018-06-11T01:11:02.054Z,18.30
2018-06-11T01:13:30.482Z,18.20
2018-06-11T01:15:58.920Z,18.00
2018-06-11T01:18:27.302Z,17.90
2018-06-11T01:20:55.637Z,17.80
2018-06-11T01:23:23.966Z,17.80
2018-06-11T01:25:52.269Z,17.80
2018-06-11T01:28:20.591Z,17.80
2018-06-11T01:30:48.923Z,17.70
2018-06-11T01:33:17.226Z,17.60
2018-06-11T01:35:45.535Z,17.60
2018-06-11T01:38:13.968Z,17.60
2018-06-11T01:40:42.381Z,17.50
2018-06-11T01:43:10.723Z,17.50
2018-06-11T01:45:39.189Z,17.40
2018-06-11T01:48:07.547Z,17.40
2018-06-11T01:50:35.884Z,17.50
2018-06-11T01:53:04.396Z,17.40
2018-06-11T01:55:32.820Z,17.50
2018-06-11T01:58:01.466Z,17.50
2018-06-11T02:00:29.820Z,17.50
2018-06-11T02:02:58.161Z,17.50
2018-06-11T02:05:26.517Z,17.50
2018-06-11T02:07:54.832Z,17.50
2018-06-11T02:10:23.182Z,17.40
2018-06-11T02:12:51.511Z,17.40
2018-06-11T02:15:19.869Z,17.30
2018-06-11T02:17:48.185Z,17.20
2018-06-11T02:20:16.513Z,17.10
2018-06-11T02:22:44.819Z,17.00
2018-06-11T02:25:13.158Z,17.10
2018-06-11T02:27:41.509Z,17.00
2018-06-11T02:30:09.937Z,16.90
2018-06-11T02:32:38.231Z,16.90
2018-06-11T02:35:06.582Z,16.80
2018-06-11T02:37:34.926Z,16.90
2018-06-11T02:40:03.228Z,16.80
2018-06-11T02:44:59.646Z,16.80
2018-06-11T02:47:28.000Z,16.90
2018-06-11T02:49:56.342Z,16.90
2018-06-11T02:52:24.658Z,16.90
2018-06-11T02:54:52.967Z,16.90
2018-06-11T02:57:21.267Z,17.00
2018-06-11T02:59:49.566Z,17.00
2018-06-11T03:02:17.915Z,16.90
2018-06-11T03:04:46.234Z,16.90
2018-06-11T03:07:14.634Z,16.90
2018-06-11T03:09:42.977Z,16.80
2018-06-11T03:12:11.306Z,16.80
2018-06-11T03:14:39.654Z,16.80
2018-06-11T03:17:07.976Z,16.70
2018-06-11T03:19:36.329Z,16.70
2018-06-11T03:22:04.614Z,16.60
2018-06-11T03:24:32.997Z,16.50
2018-06-11T03:27:01.335Z,16.60
2018-06-11T03:29:29.635Z,16.50
2018-06-11T03:31:58.054Z,16.40
2018-06-11T03:34:26.433Z,16.40
2018-06-11T03:36:54.778Z,16.40
2018-06-11T03:39:23.093Z,16.30
2018-06-11T03:41:51.428Z,16.40
2018-06-11T03:44:19.786Z,16.50
2018-06-11T03:46:48.133Z,16.40
2018-06-11T03:49:16.495Z,16.50
2018-06-11T03:51:44.826Z,16.50
2018-06-11T03:54:13.158Z,16.60
2018-06-11T03:56:41.480Z,16.70
2018-06-11T03:59:09.793Z,16.70
2018-06-11T04:01:38.105Z,16.80
2018-06-11T04:04:06.411Z,16.80
2018-06-11T04:06:34.725Z,16.90
2018-06-11T04:09:03.315Z,16.90
2018-06-11T04:11:31.654Z,16.80
2018-06-11T04:14:00.022Z,16.80
2018-06-11T04:16:28.362Z,16.80
2018-06-11T04:18:56.665Z,16.80
2018-06-11T04:21:25.026Z,16.90
2018-06-11T04:23:53.345Z,16.90
2018-06-11T04:26:21.696Z,17.00
2018-06-11T04:28:50.041Z,16.90
2018-06-11T04:33:46.446Z,16.80
2018-06-11T04:36:14.815Z,16.80
2018-06-11T04:38:43.111Z,16.80
2018-06-11T04:41:11.451Z,16.90
2018-06-11T04:43:39.782Z,16.90
2018-06-11T04:46:08.110Z,16.90
2018-06-11T04:48:36.506Z,16.90
2018-06-11T04:51:04.859Z,17.00
2018-06-11T04:53:33.179Z,17.00
2018-06-11T04:56:01.505Z,17.00
2018-06-11T04:58:29.844Z,17.20
2018-06-11T05:00:58.178Z,17.30
2018-06-11T05:03:26.510Z,17.30
2018-06-11T05:05:54.865Z,17.50
2018-06-11T05:08:23.232Z,17.60
2018-06-11T05:10:51.579Z,17.70
2018-06-11T05:13:19.927Z,17.80
2018-06-11T05:15:48.259Z,17.90
2018-06-11T05:18:16.632Z,18.10
2018-06-11T05:20:44.990Z,18.20
2018-06-11T05:23:13.367Z,18.20
2018-06-11T05:25:41.759Z,18.40
2018-06-11T05:28:10.098Z,18.50
2018-06-11T05:30:38.413Z,18.50
2018-06-11T05:33:06.757Z,18.60
2018-06-11T05:35:35.090Z,18.50
2018-06-11T05:38:03.473Z,18.40
2018-06-11T05:40:31.792Z,18.40
2018-06-11T05:43:00.111Z,18.40
2018-06-11T05:45:28.472Z,18.30
2018-06-11T05:47:56.898Z,18.50
2018-06-11T05:50:25.301Z,18.70
2018-06-11T05:52:53.614Z,18.70
2018-06-11T05:55:21.962Z,18.80
2018-06-11T05:57:50.271Z,18.80
2018-06-11T06:00:18.633Z,18.90
2018-06-11T06:02:46.964Z,19.00
2018-06-11T06:05:15.321Z,18.90
2018-06-11T06:07:43.666Z,19.30
2018-06-11T06:10:12.068Z,19.80
2018-06-11T06:12:40.474Z,20.40
2018-06-11T06:15:08.786Z,20.80
2018-06-11T06:17:37.154Z,20.90
2018-06-11T06:20:06.333Z,20.60
2018-06-11T06:22:34.703Z,20.60
2018-06-11T06:25:03.045Z,20.70
2018-06-11T06:27:31.369Z,20.80
2018-06-11T06:29:59.693Z,20.70
2018-06-11T06:32:27.987Z,20.50
2018-06-11T06:34:56.428Z,20.50
2018-06-11T06:37:24.791Z,20.70
2018-06-11T06:39:53.222Z,21.00
2018-06-11T06:42:21.579Z,21.10
2018-06-11T06:44:50.074Z,21.10
2018-06-11T06:47:18.461Z,21.00
2018-06-11T06:49:46.920Z,20.80
2018-06-11T06:52:17.227Z,20.70
2018-06-11T06:57:14.450Z,20.50
2018-06-11T06:59:42.766Z,20.70
2018-06-11T07:02:11.165Z,20.80
2018-06-11T07:04:40.067Z,20.90
2018-06-11T07:07:08.401Z,20.70
2018-06-11T07:09:37.847Z,20.40
2018-06-11T07:12:06.259Z,20.30
2018-06-11T07:14:34.638Z,20.40
2018-06-11T07:17:03.035Z,20.50
2018-06-11T07:19:32.032Z,20.50
2018-06-11T07:22:01.027Z,20.50
2018-06-11T07:24:29.403Z,20.40
2018-06-11T07:26:57.776Z,20.30
2018-06-11T07:29:26.102Z,20.20
2018-06-11T07:31:54.398Z,20.20
2018-06-11T07:34:22.794Z,20.20
2018-06-11T07:36:59.788Z,20.20
2018-06-11T07:39:28.104Z,20.20
2018-06-11T07:41:57.162Z,20.30
2018-06-11T07:44:25.517Z,20.20
2018-06-11T07:46:55.024Z,20.40
2018-06-11T07:49:26.299Z,20.50
2018-06-11T07:51:57.482Z,20.70
2018-06-11T07:54:25.801Z,20.60
2018-06-11T07:56:54.124Z,20.50
2018-06-11T07:59:22.456Z,20.50
2018-06-11T08:01:50.820Z,20.60
2018-06-11T08:04:19.196Z,20.40
2018-06-11T08:06:48.251Z,20.40
2018-06-11T08:11:44.655Z,20.30
2018-06-11T08:14:12.996Z,20.40
2018-06-11T08:16:41.341Z,20.40
2018-06-11T08:19:10.711Z,20.50
2018-06-11T08:21:39.102Z,20.30
2018-06-11T08:24:07.437Z,20.20
2018-06-11T08:26:35.785Z,20.20
2018-06-11T08:29:04.174Z,20.30
2018-06-11T08:31:33.543Z,20.50
2018-06-11T08:34:01.881Z,20.60
2018-06-11T08:36:30.283Z,20.50
2018-06-11T08:38:58.619Z,20.60
2018-06-11T08:41:26.950Z,20.60
2018-06-11T08:43:55.849Z,20.60
2018-06-11T08:46:25.396Z,20.50
2018-06-11T08:48:53.747Z,20.70
2018-06-11T08:51:22.083Z,20.60
2018-06-11T08:53:50.462Z,20.50
2018-06-11T08:56:18.769Z,20.60
2018-06-11T08:58:47.085Z,20.50
2018-06-11T09:01:15.408Z,20.60
2018-06-11T09:03:43.752Z,20.70
2018-06-11T09:06:12.105Z,20.80
2018-06-11T09:08:40.460Z,20.90
2018-06-11T09:11:08.846Z,21.10
2018-06-11T09:13:37.901Z,21.40
2018-06-11T09:16:06.396Z,21.50
2018-06-11T09:18:34.769Z,21.70
2018-06-11T09:21:03.101Z,21.80
2018-06-11T09:23:31.425Z,21.90
2018-06-11T09:25:59.762Z,21.90
2018-06-11T09:28:28.113Z,22.00
2018-06-11T09:30:56.552Z,21.70
2018-06-11T09:35:52.943Z,22.10
2018-06-11T09:38:22.542Z,22.20
2018-06-11T09:40:50.960Z,21.80
2018-06-11T09:43:19.282Z,21.40
2018-06-11T09:45:47.703Z,21.30
2018-06-11T09:48:16.080Z,21.00
2018-06-11T09:50:44.690Z,21.00
2018-06-11T09:53:13.073Z,21.10
2018-06-11T09:55:41.499Z,21.10
2018-06-11T09:58:11.113Z,21.10
2018-06-11T10:00:39.505Z,21.20
2018-06-11T10:03:07.850Z,21.40
2018-06-11T10:05:36.253Z,21.40
2018-06-11T10:10:33.982Z,21.50
2018-06-11T10:13:02.765Z,21.30
2018-06-11T10:15:36.707Z,21.20
2018-06-11T10:18:05.090Z,21.30
2018-06-11T10:20:33.405Z,21.30
2018-06-11T10:23:02.313Z,21.40
2018-06-11T10:25:30.683Z,21.70
2018-06-11T10:27:59.101Z,21.50
2018-06-11T10:30:27.472Z,21.50
2018-06-11T10:32:55.810Z,21.50
2018-06-11T10:35:24.106Z,21.50
2018-06-11T10:37:52.509Z,21.70
2018-06-11T10:40:20.844Z,21.60
2018-06-11T10:42:50.228Z,21.70
2018-06-11T10:45:18.566Z,21.80
2018-06-11T10:47:46.950Z,21.90
2018-06-11T10:50:16.626Z,21.50
2018-06-11T10:52:45.031Z,21.50
2018-06-11T10:55:13.388Z,21.50
2018-06-11T10:57:42.417Z,21.50
2018-06-11T11:00:10.798Z,21.60
2018-06-11T11:02:42.579Z,21.50
2018-06-11T11:05:10.934Z,21.70
2018-06-11T11:07:39.297Z,21.70
2018-06-11T11:10:07.614Z,21.60
2018-06-11T11:12:35.985Z,21.40
2018-06-11T11:15:16.930Z,21.30
2018-06-11T11:17:45.264Z,21.40
2018-06-11T11:20:13.645Z,21.30
2018-06-11T11:22:41.989Z,21.30
2018-06-11T11:25:10.319Z,21.30
2018-06-11T11:27:38.660Z,21.40
2018-06-11T11:30:07.030Z,21.50
2018-06-11T11:32:35.417Z,21.60
2018-06-11T11:35:03.710Z,21.60
2018-06-11T11:37:32.159Z,21.50
2018-06-11T11:40:00.515Z,21.50
2018-06-11T11:42:28.876Z,21.40
2018-06-11T11:44:57.945Z,21.30
2018-06-11T11:47:26.365Z,21.30
2018-06-11T11:49:54.716Z,21.30
2018-06-11T11:52:23.144Z,21.20
2018-06-11T11:54:54.937Z,21.20
2018-06-11T11:57:24.687Z,21.10
2018-06-11T11:59:53.642Z,20.90
2018-06-11T12:02:22.010Z,20.80
2018-06-11T12:04:50.372Z,20.80
2018-06-11T12:07:18.722Z,20.70
2018-06-11T12:09:47.149Z,20.70
2018-06-11T12:12:15.484Z,20.70
2018-06-11T12:14:43.873Z,20.50
2018-06-11T12:17:12.234Z,20.40
2018-06-11T12:19:41.897Z,20.40
2018-06-11T12:22:12.203Z,20.30
2018-06-11T12:24:40.596Z,20.30
2018-06-11T12:27:08.963Z,20.20
2018-06-11T12:29:37.347Z,20.10
2018-06-11T12:34:34.755Z,20.00
2018-06-11T12:37:03.082Z,19.90
2018-06-11T12:39:31.438Z,19.80
2018-06-11T12:41:59.859Z,19.80
2018-06-11T12:44:28.214Z,19.70
2018-06-11T12:46:56.605Z,19.60
2018-06-11T12:49:24.973Z,19.50
2018-06-11T12:51:53.292Z,19.60
2018-06-11T12:54:21.634Z,19.70
2018-06-11T12:56:49.982Z,19.70
2018-06-11T12:59:18.398Z,19.70
2018-06-11T13:01:47.314Z,19.60
2018-06-11T13:04:43.087Z,19.60
2018-06-11T13:07:11.748Z,19.60
2018-06-11T13:09:40.201Z,19.60
2018-06-11T13:12:08.663Z,19.50
2018-06-11T13:14:37.092Z,19.40
2018-06-11T13:17:05.625Z,19.30
2018-06-11T13:19:34.031Z,19.20
2018-06-11T13:22:02.465Z,19.10
2018-06-11T13:24:31.046Z,19.10
2018-06-11T13:26:59.393Z,19.10
2018-06-11T13:29:28.677Z,19.00
2018-06-11T13:31:57.060Z,19.00
2018-06-11T13:34:25.542Z,18.90
2018-06-11T13:36:53.912Z,18.80
2018-06-11T13:39:22.444Z,18.70
2018-06-11T13:41:50.877Z,18.70
2018-06-11T13:44:19.243Z,18.70
2018-06-11T13:46:47.672Z,18.60
2018-06-11T13:49:16.083Z,18.60
2018-06-11T13:51:44.492Z,18.60
2018-06-11T13:54:12.877Z,18.50
2018-06-11T13:56:41.268Z,18.40
2018-06-11T13:59:09.641Z,18.30
2018-06-11T14:01:38.056Z,18.50
2018-06-11T14:04:06.407Z,18.60
2018-06-11T14:06:34.756Z,18.60
2018-06-11T14:09:03.346Z,18.50
2018-06-11T14:11:31.730Z,18.60
2018-06-11T14:16:28.092Z,18.50
2018-06-11T14:18:56.449Z,18.40
2018-06-11T14:21:24.816Z,18.50
2018-06-11T14:23:53.395Z,18.40
2018-06-11T14:26:22.699Z,18.50
2018-06-11T14:28:51.125Z,18.40
2018-06-11T14:31:19.497Z,18.50
2018-06-11T14:33:47.844Z,18.50
2018-06-11T14:36:16.141Z,18.50
2018-06-11T14:38:44.477Z,18.60
2018-06-11T14:41:12.811Z,18.70
2018-06-11T14:43:41.220Z,18.60
2018-06-11T14:46:09.606Z,18.60
2018-06-11T14:48:38.006Z,18.60
2018-06-11T14:51:06.369Z,18.60
2018-06-11T14:56:02.784Z,18.50
2018-06-11T14:58:31.160Z,18.40
2018-06-11T15:00:59.553Z,18.30
2018-06-11T15:03:27.964Z,18.30
2018-06-11T15:05:56.306Z,18.30
2018-06-11T15:08:24.875Z,18.40
2018-06-11T15:10:53.306Z,18.40
2018-06-11T15:13:21.730Z,18.30
2018-06-11T15:15:50.136Z,18.20
2018-06-11T15:18:18.503Z,18.20
2018-06-11T15:20:46.885Z,18.20
2018-06-11T15:23:15.211Z,18.20
2018-06-11T15:25:44.015Z,18.20
2018-06-11T15:28:12.407Z,18.20
2018-06-11T15:30:40.786Z,18.20
2018-06-11T15:33:09.147Z,18.30
2018-06-11T15:35:37.497Z,18.30
2018-06-11T15:38:05.912Z,18.30
2018-06-11T15:40:34.292Z,18.20
2018-06-11T15:43:02.966Z,18.30
2018-06-11T15:45:31.468Z,18.30
2018-06-11T15:47:59.892Z,18.40
2018-06-11T15:50:28.260Z,18.40
2018-06-11T15:52:56.651Z,18.30
2018-06-11T15:55:24.990Z,18.50
2018-06-11T15:57:53.386Z,18.50
2018-06-11T16:00:21.772Z,18.60
2018-06-11T16:02:50.193Z,18.70
2018-06-11T16:05:18.567Z,18.90
2018-06-11T16:07:46.917Z,19.10
2018-06-11T16:10:15.260Z,19.10
2018-06-11T16:12:43.626Z,19.10
2018-06-11T16:15:12.032Z,19.00
2018-06-11T16:17:40.411Z,18.90
2018-06-11T16:20:08.824Z,18.90
2018-06-11T16:22:37.213Z,18.90
2018-06-11T16:25:05.807Z,18.90
2018-06-11T16:27:34.147Z,18.70
2018-06-11T16:30:02.535Z,18.70
2018-06-11T16:32:30.912Z,18.70
2018-06-11T16:34:59.381Z,18.70
2018-06-11T16:37:28.551Z,18.60
2018-06-11T16:39:56.921Z,18.40
2018-06-11T16:42:25.306Z,18.30
2018-06-11T16:44:53.693Z,18.20
2018-06-11T16:47:23.045Z,18.10
2018-06-11T16:49:51.443Z,18.10
2018-06-11T16:52:20.534Z,18.10
2018-06-11T16:54:48.957Z,17.90
2018-06-11T16:57:17.465Z,18.00
2018-06-11T16:59:46.241Z,17.90
2018-06-11T17:02:14.756Z,18.00
2018-06-11T17:04:43.147Z,18.00
2018-06-11T17:07:12.829Z,18.10
2018-06-11T17:09:41.230Z,18.00
2018-06-11T17:12:09.629Z,18.20
2018-06-11T17:14:38.025Z,18.20
2018-06-11T17:17:06.853Z,18.20
2018-06-11T17:19:35.360Z,18.20
2018-06-11T17:22:04.431Z,18.30
2018-06-11T17:24:32.866Z,18.30
2018-06-11T17:27:01.265Z,18.20
2018-06-11T17:29:29.715Z,18.30
2018-06-11T17:31:58.735Z,18.30
2018-06-11T17:34:27.720Z,18.30
2018-06-11T17:36:56.173Z,18.20
2018-06-11T17:39:24.604Z,18.20
2018-06-11T17:41:52.977Z,18.20
2018-06-11T17:44:21.363Z,18.20
2018-06-11T17:46:49.768Z,18.20
2018-06-11T17:49:18.763Z,18.00
2018-06-11T17:51:47.092Z,18.00
2018-06-11T17:54:15.524Z,17.80
2018-06-11T17:56:43.951Z,17.70
2018-06-11T17:59:12.532Z,17.70
2018-06-11T18:01:41.734Z,17.60
2018-06-11T18:04:10.130Z,17.50
2018-06-11T18:06:38.526Z,17.50
2018-06-11T18:09:08.445Z,17.60
2018-06-11T18:11:38.146Z,17.50
2018-06-11T18:14:06.588Z,17.60
2018-06-11T18:16:35.013Z,17.50
2018-06-11T18:19:03.414Z,17.50
2018-06-11T18:21:32.581Z,17.50
2018-06-11T18:24:01.953Z,17.50
2018-06-11T18:26:31.053Z,17.50
2018-06-11T18:29:00.428Z,17.60
2018-06-11T18:31:30.161Z,17.70
2018-06-11T18:33:58.578Z,17.60
2018-06-11T18:36:27.020Z,17.60
2018-06-11T18:38:55.461Z,17.40
2018-06-11T18:41:24.701Z,17.30
2018-06-11T18:43:53.109Z,17.30
2018-06-11T18:46:21.618Z,17.20
2018-06-11T18:48:50.026Z,17.10
2018-06-11T18:51:18.438Z,17.10
2018-06-11T18:53:48.623Z,17.00
2018-06-11T18:56:17.045Z,17.10
2018-06-11T18:58:46.269Z,17.10
2018-06-11T19:01:14.662Z,17.00
2018-06-11T19:03:43.041Z,17.20
2018-06-11T19:06:11.453Z,17.10
2018-06-11T19:08:39.866Z,17.10
2018-06-11T19:11:08.293Z,17.20
2018-06-11T19:13:36.717Z,17.20
2018-06-11T19:16:06.438Z,17.10
2018-06-11T19:18:34.895Z,17.10
2018-06-11T19:21:03.338Z,17.10
2018-06-11T19:23:31.777Z,17.10
2018-06-11T19:26:01.174Z,17.00
2018-06-11T19:28:29.579Z,17.00
2018-06-11T19:30:58.042Z,17.10
2018-06-11T19:35:56.168Z,16.80
2018-06-11T19:38:25.179Z,16.80
2018-06-11T19:40:53.611Z,16.70
2018-06-11T19:43:22.339Z,16.70
2018-06-11T19:45:53.918Z,16.70
2018-06-11T19:48:22.311Z,16.60
2018-06-11T19:50:51.258Z,16.60
2018-06-11T19:53:19.694Z,16.50
2018-06-11T20:00:44.245Z,16.40
2018-06-11T20:03:12.564Z,16.30
2018-06-11T20:05:40.880Z,16.20
2018-06-11T20:10:37.329Z,16.20
2018-06-11T20:13:05.725Z,16.20
2018-06-11T20:15:34.188Z,16.30
2018-06-11T20:18:02.607Z,16.20
2018-06-11T20:20:31.207Z,16.20
2018-06-11T20:22:59.555Z,16.30
2018-06-11T20:25:27.928Z,16.30
2018-06-11T20:27:56.309Z,16.50
2018-06-11T20:30:24.698Z,16.30
2018-06-11T20:32:53.030Z,16.50
2018-06-11T20:35:21.398Z,16.50
2018-06-11T20:37:49.790Z,16.50
2018-06-11T20:42:46.514Z,16.60
2018-06-11T20:45:14.926Z,16.60
2018-06-11T20:47:43.321Z,16.50
2018-06-11T20:52:39.829Z,16.30
2018-06-11T20:55:08.176Z,16.30
2018-06-11T20:57:36.517Z,16.30
2018-06-11T21:00:05.064Z,16.20
2018-06-11T21:02:33.386Z,16.20
2018-06-11T21:05:01.752Z,16.20
2018-06-11T21:07:30.104Z,16.20
2018-06-11T21:09:58.491Z,16.10
2018-06-11T21:12:26.831Z,16.00
2018-06-11T21:14:55.176Z,16.00
2018-06-11T21:17:23.473Z,15.90
2018-06-11T21:19:51.836Z,15.90
2018-06-11T21:22:20.184Z,15.90
2018-06-11T21:24:48.517Z,15.70
2018-06-11T21:27:17.339Z,15.70
2018-06-11T21:29:45.686Z,15.80
2018-06-11T21:32:14.059Z,15.70
2018-06-11T21:34:42.461Z,15.80
2018-06-11T21:37:10.795Z,15.80
2018-06-11T21:39:39.167Z,15.80
2018-06-11T21:42:07.505Z,15.90
2018-06-11T21:44:35.894Z,15.80
2018-06-11T21:47:04.271Z,15.70
2018-06-11T21:49:32.658Z,15.70
2018-06-11T21:52:00.980Z,15.60
2018-06-11T21:54:29.353Z,15.50
2018-06-11T21:56:57.716Z,15.40
2018-06-11T21:59:26.080Z,15.40
2018-06-11T22:01:54.415Z,15.30
2018-06-11T22:04:22.785Z,15.40
2018-06-11T22:06:51.130Z,15.40
2018-06-11T22:09:19.481Z,15.40
2018-06-11T22:11:47.794Z,15.40
2018-06-11T22:14:16.106Z,15.30
2018-06-11T22:16:44.486Z,15.30
2018-06-11T22:19:12.850Z,15.30
2018-06-11T22:21:41.198Z,15.20
2018-06-11T22:24:09.558Z,15.30
2018-06-11T22:26:37.920Z,15.20
2018-06-11T22:29:06.289Z,15.20
2018-06-11T22:31:34.701Z,15.20
2018-06-11T22:34:03.353Z,15.20
2018-06-11T22:36:31.733Z,15.20
2018-06-11T22:39:00.148Z,15.20
2018-06-11T22:41:28.559Z,15.10
2018-06-11T22:43:56.888Z,15.10
2018-06-11T22:46:25.256Z,15.00
2018-06-11T22:48:53.593Z,15.10
2018-06-11T22:51:21.921Z,15.10
2018-06-11T22:53:50.344Z,15.10
2018-06-11T22:56:19.034Z,15.10
2018-06-11T22:58:47.439Z,15.20
2018-06-11T23:01:15.791Z,15.20
2018-06-11T23:03:44.148Z,15.30
2018-06-11T23:06:12.470Z,15.30
2018-06-11T23:08:40.783Z,15.30
2018-06-11T23:11:09.111Z,15.30
2018-06-11T23:13:37.420Z,15.20
2018-06-11T23:16:05.767Z,15.20
2018-06-11T23:18:34.062Z,15.10
2018-06-11T23:21:02.470Z,15.10
2018-06-11T23:23:30.789Z,15.10
2018-06-11T23:25:59.127Z,15.10
2018-06-11T23:28:27.459Z,15.10
2018-06-11T23:30:55.817Z,15.00
2018-06-11T23:33:24.177Z,15.00
2018-06-11T23:35:52.487Z,15.00
2018-06-11T23:38:20.827Z,15.00
2018-06-11T23:40:49.138Z,14.90
2018-06-11T23:43:17.460Z,14.80
2018-06-11T23:45:45.769Z,14.80
2018-06-11T23:48:14.124Z,14.70
2018-06-11T23:50:42.410Z,14.60
2018-06-11T23:53:10.692Z,14.40
2018-06-11T23:55:39.042Z,14.30
2018-06-11T23:58:07.341Z,14.30
